sensor_id;sensor_type;location;lat;lon;timestamp;temperature;humidity
78297;DHT22;67555;47.660;19.622;2023-07-13T00:00:28;24.40;68.40
78297;DHT22;67555;47.660;19.622;2023-07-13T00:02:54;24.40;68.30
78297;DHT22;67555;47.660;19.622;2023-07-13T00:05:21;24.20;68.70
78297;DHT22;67555;47.660;19.622;2023-07-13T00:07:47;23.60;69.90
78297;DHT22;67555;47.660;19.622;2023-07-13T00:10:14;23.10;72.50
78297;DHT22;67555;47.660;19.622;2023-07-13T00:12:40;23.00;74.20
78297;DHT22;67555;47.660;19.622;2023-07-13T00:15:10;23.00;74.60
78297;DHT22;67555;47.660;19.622;2023-07-13T00:17:37;23.00;74.60
78297;DHT22;67555;47.660;19.622;2023-07-13T00:20:05;23.10;74.50
78297;DHT22;67555;47.660;19.622;2023-07-13T00:22:32;23.20;74.30
78297;DHT22;67555;47.660;19.622;2023-07-13T00:24:58;23.30;74.10
78297;DHT22;67555;47.660;19.622;2023-07-13T00:27:24;23.40;74.30
78297;DHT22;67555;47.660;19.622;2023-07-13T00:29:52;23.40;74.50
78297;DHT22;67555;47.660;19.622;2023-07-13T00:32:18;23.40;74.80
78297;DHT22;67555;47.660;19.622;2023-07-13T00:34:44;23.30;75.20
78297;DHT22;67555;47.660;19.622;2023-07-13T00:37:10;23.20;75.70
78297;DHT22;67555;47.660;19.622;2023-07-13T00:39:37;22.90;76.60
78297;DHT22;67555;47.660;19.622;2023-07-13T00:42:03;22.50;78.50
78297;DHT22;67555;47.660;19.622;2023-07-13T00:44:30;22.10;80.30
78297;DHT22;67555;47.660;19.622;2023-07-13T00:46:56;21.70;81.90
78297;DHT22;67555;47.660;19.622;2023-07-13T00:49:25;21.50;83.20
78297;DHT22;67555;47.660;19.622;2023-07-13T00:54:26;21.30;84.60
78297;DHT22;67555;47.660;19.622;2023-07-13T00:56:55;21.20;84.70
78297;DHT22;67555;47.660;19.622;2023-07-13T00:59:24;21.20;84.40
78297;DHT22;67555;47.660;19.622;2023-07-13T01:01:50;21.30;84.10
78297;DHT22;67555;47.660;19.622;2023-07-13T01:04:17;21.40;83.70
78297;DHT22;67555;47.660;19.622;2023-07-13T01:06:43;21.50;83.30
78297;DHT22;67555;47.660;19.622;2023-07-13T01:09:10;21.50;82.80
78297;DHT22;67555;47.660;19.622;2023-07-13T01:11:37;21.60;82.60
78297;DHT22;67555;47.660;19.622;2023-07-13T01:14:04;21.70;82.30
78297;DHT22;67555;47.660;19.622;2023-07-13T01:16:33;21.70;82.10
78297;DHT22;67555;47.660;19.622;2023-07-13T01:18:59;21.70;81.70
78297;DHT22;67555;47.660;19.622;2023-07-13T01:21:28;21.80;81.50
78297;DHT22;67555;47.660;19.622;2023-07-13T01:23:54;21.70;81.60
78297;DHT22;67555;47.660;19.622;2023-07-13T01:26:20;21.70;82.00
78297;DHT22;67555;47.660;19.622;2023-07-13T01:28:45;21.50;82.50
78297;DHT22;67555;47.660;19.622;2023-07-13T01:31:11;21.50;82.50
78297;DHT22;67555;47.660;19.622;2023-07-13T01:33:39;21.50;82.60
78297;DHT22;67555;47.660;19.622;2023-07-13T01:36:06;21.50;82.20
78297;DHT22;67555;47.660;19.622;2023-07-13T01:38:34;21.70;81.80
78297;DHT22;67555;47.660;19.622;2023-07-13T01:41:00;21.70;81.10
78297;DHT22;67555;47.660;19.622;2023-07-13T01:43:25;21.90;80.80
78297;DHT22;67555;47.660;19.622;2023-07-13T01:45:52;22.00;80.40
78297;DHT22;67555;47.660;19.622;2023-07-13T01:48:17;22.10;80.10
78297;DHT22;67555;47.660;19.622;2023-07-13T01:50:44;22.10;79.80
78297;DHT22;67555;47.660;19.622;2023-07-13T01:53:10;22.10;79.60
78297;DHT22;67555;47.660;19.622;2023-07-13T01:55:35;22.20;79.50
78297;DHT22;67555;47.660;19.622;2023-07-13T01:58:02;22.20;79.30
78297;DHT22;67555;47.660;19.622;2023-07-13T02:00:28;22.20;79.20
78297;DHT22;67555;47.660;19.622;2023-07-13T02:02:54;22.10;79.20
78297;DHT22;67555;47.660;19.622;2023-07-13T02:05:19;22.00;79.20
78297;DHT22;67555;47.660;19.622;2023-07-13T02:07:45;22.00;79.30
78297;DHT22;67555;47.660;19.622;2023-07-13T02:10:12;21.80;80.00
78297;DHT22;67555;47.660;19.622;2023-07-13T02:12:38;21.50;80.70
78297;DHT22;67555;47.660;19.622;2023-07-13T02:15:05;21.40;81.20
78297;DHT22;67555;47.660;19.622;2023-07-13T02:17:31;21.40;81.40
78297;DHT22;67555;47.660;19.622;2023-07-13T02:19:57;21.30;81.50
78297;DHT22;67555;47.660;19.622;2023-07-13T02:22:23;21.30;81.50
78297;DHT22;67555;47.660;19.622;2023-07-13T02:24:50;21.30;81.40
78297;DHT22;67555;47.660;19.622;2023-07-13T02:27:15;21.30;81.20
78297;DHT22;67555;47.660;19.622;2023-07-13T02:29:41;21.40;81.00
78297;DHT22;67555;47.660;19.622;2023-07-13T02:32:07;21.40;80.80
78297;DHT22;67555;47.660;19.622;2023-07-13T02:34:34;21.40;80.70
78297;DHT22;67555;47.660;19.622;2023-07-13T02:36:59;21.40;80.50
78297;DHT22;67555;47.660;19.622;2023-07-13T02:39:25;21.40;80.70
78297;DHT22;67555;47.660;19.622;2023-07-13T02:41:51;21.40;80.70
78297;DHT22;67555;47.660;19.622;2023-07-13T02:44:16;21.50;80.50
78297;DHT22;67555;47.660;19.622;2023-07-13T02:46:42;21.50;80.40
78297;DHT22;67555;47.660;19.622;2023-07-13T02:49:08;21.50;80.10
78297;DHT22;67555;47.660;19.622;2023-07-13T02:51:34;21.50;80.10
78297;DHT22;67555;47.660;19.622;2023-07-13T02:54:01;21.50;80.10
78297;DHT22;67555;47.660;19.622;2023-07-13T02:56:28;21.50;80.20
78297;DHT22;67555;47.660;19.622;2023-07-13T02:58:54;21.40;80.50
78297;DHT22;67555;47.660;19.622;2023-07-13T03:01:21;21.30;80.70
78297;DHT22;67555;47.660;19.622;2023-07-13T03:03:48;21.30;80.70
78297;DHT22;67555;47.660;19.622;2023-07-13T03:06:14;21.30;80.70
78297;DHT22;67555;47.660;19.622;2023-07-13T03:08:41;21.10;80.90
78297;DHT22;67555;47.660;19.622;2023-07-13T03:11:13;21.10;81.10
78297;DHT22;67555;47.660;19.622;2023-07-13T03:13:40;21.00;81.30
78297;DHT22;67555;47.660;19.622;2023-07-13T03:16:07;20.90;81.50
78297;DHT22;67555;47.660;19.622;2023-07-13T03:18:33;20.90;81.60
78297;DHT22;67555;47.660;19.622;2023-07-13T03:21:00;20.90;81.80
78297;DHT22;67555;47.660;19.622;2023-07-13T03:23:25;20.80;81.90
78297;DHT22;67555;47.660;19.622;2023-07-13T03:26:01;20.80;82.10
78297;DHT22;67555;47.660;19.622;2023-07-13T03:28:27;20.80;82.10
78297;DHT22;67555;47.660;19.622;2023-07-13T03:31:17;20.90;82.00
78297;DHT22;67555;47.660;19.622;2023-07-13T03:33:44;21.00;81.60
78297;DHT22;67555;47.660;19.622;2023-07-13T03:36:15;21.10;81.20
78297;DHT22;67555;47.660;19.622;2023-07-13T03:38:41;21.10;81.00
78297;DHT22;67555;47.660;19.622;2023-07-13T03:41:07;21.30;80.90
78297;DHT22;67555;47.660;19.622;2023-07-13T03:43:33;21.40;80.70
78297;DHT22;67555;47.660;19.622;2023-07-13T03:45:58;21.50;80.50
78297;DHT22;67555;47.660;19.622;2023-07-13T03:48:24;21.70;80.10
78297;DHT22;67555;47.660;19.622;2023-07-13T03:50:50;21.70;79.80
78297;DHT22;67555;47.660;19.622;2023-07-13T03:53:16;21.70;79.70
78297;DHT22;67555;47.660;19.622;2023-07-13T03:55:41;21.70;79.70
78297;DHT22;67555;47.660;19.622;2023-07-13T03:58:27;21.70;79.80
78297;DHT22;67555;47.660;19.622;2023-07-13T04:00:54;21.70;79.70
78297;DHT22;67555;47.660;19.622;2023-07-13T04:03:19;21.90;79.50
78297;DHT22;67555;47.660;19.622;2023-07-13T04:05:46;22.00;79.10
78297;DHT22;67555;47.660;19.622;2023-07-13T04:08:12;22.10;78.80
78297;DHT22;67555;47.660;19.622;2023-07-13T04:10:38;22.20;78.60
78297;DHT22;67555;47.660;19.622;2023-07-13T04:13:04;22.30;78.50
78297;DHT22;67555;47.660;19.622;2023-07-13T04:15:32;22.50;78.20
78297;DHT22;67555;47.660;19.622;2023-07-13T04:17:58;22.50;78.00
78297;DHT22;67555;47.660;19.622;2023-07-13T04:20:25;22.50;77.80
78297;DHT22;67555;47.660;19.622;2023-07-13T04:22:51;22.50;77.70
78297;DHT22;67555;47.660;19.622;2023-07-13T04:25:19;22.60;77.70
78297;DHT22;67555;47.660;19.622;2023-07-13T04:27:44;22.50;77.60
78297;DHT22;67555;47.660;19.622;2023-07-13T04:30:10;22.50;77.60
78297;DHT22;67555;47.660;19.622;2023-07-13T04:32:36;22.60;77.50
78297;DHT22;67555;47.660;19.622;2023-07-13T04:35:02;22.60;77.50
78297;DHT22;67555;47.660;19.622;2023-07-13T04:37:27;22.50;77.50
78297;DHT22;67555;47.660;19.622;2023-07-13T04:39:54;22.50;77.40
78297;DHT22;67555;47.660;19.622;2023-07-13T04:42:20;22.60;77.30
78297;DHT22;67555;47.660;19.622;2023-07-13T04:44:50;22.60;77.10
78297;DHT22;67555;47.660;19.622;2023-07-13T04:47:17;22.60;77.40
78297;DHT22;67555;47.660;19.622;2023-07-13T04:49:42;22.70;77.20
78297;DHT22;67555;47.660;19.622;2023-07-13T04:52:08;22.90;76.80
78297;DHT22;67555;47.660;19.622;2023-07-13T04:54:34;23.00;76.40
78297;DHT22;67555;47.660;19.622;2023-07-13T04:57:00;23.20;76.10
78297;DHT22;67555;47.660;19.622;2023-07-13T04:59:26;23.30;75.80
78297;DHT22;67555;47.660;19.622;2023-07-13T05:01:53;23.30;75.50
78297;DHT22;67555;47.660;19.622;2023-07-13T05:04:19;23.30;75.40
78297;DHT22;67555;47.660;19.622;2023-07-13T05:06:44;23.40;75.30
78297;DHT22;67555;47.660;19.622;2023-07-13T05:09:10;23.40;75.40
78297;DHT22;67555;47.660;19.622;2023-07-13T05:11:38;23.40;75.40
78297;DHT22;67555;47.660;19.622;2023-07-13T05:14:03;23.40;75.30
78297;DHT22;67555;47.660;19.622;2023-07-13T05:16:29;23.30;75.60
78297;DHT22;67555;47.660;19.622;2023-07-13T05:18:55;23.30;75.90
78297;DHT22;67555;47.660;19.622;2023-07-13T05:21:20;23.30;75.90
78297;DHT22;67555;47.660;19.622;2023-07-13T05:23:47;23.30;75.90
78297;DHT22;67555;47.660;19.622;2023-07-13T05:26:13;23.30;75.90
78297;DHT22;67555;47.660;19.622;2023-07-13T05:28:38;23.30;75.90
78297;DHT22;67555;47.660;19.622;2023-07-13T05:31:06;23.30;76.00
78297;DHT22;67555;47.660;19.622;2023-07-13T05:33:32;23.30;76.10
78297;DHT22;67555;47.660;19.622;2023-07-13T05:35:58;23.30;76.30
78297;DHT22;67555;47.660;19.622;2023-07-13T05:38:26;23.20;76.60
78297;DHT22;67555;47.660;19.622;2023-07-13T05:40:54;23.10;77.00
78297;DHT22;67555;47.660;19.622;2023-07-13T05:43:21;22.90;77.40
78297;DHT22;67555;47.660;19.622;2023-07-13T05:45:47;22.80;77.80
78297;DHT22;67555;47.660;19.622;2023-07-13T05:48:12;22.60;78.40
78297;DHT22;67555;47.660;19.622;2023-07-13T05:50:38;22.30;79.20
78297;DHT22;67555;47.660;19.622;2023-07-13T05:53:05;22.20;79.80
78297;DHT22;67555;47.660;19.622;2023-07-13T05:55:31;22.00;80.40
78297;DHT22;67555;47.660;19.622;2023-07-13T05:57:57;21.90;81.50
78297;DHT22;67555;47.660;19.622;2023-07-13T06:00:24;21.70;82.40
78297;DHT22;67555;47.660;19.622;2023-07-13T06:02:50;21.50;83.00
78297;DHT22;67555;47.660;19.622;2023-07-13T06:05:17;21.40;83.20
78297;DHT22;67555;47.660;19.622;2023-07-13T06:07:42;21.20;83.90
78297;DHT22;67555;47.660;19.622;2023-07-13T06:10:09;20.90;85.00
78297;DHT22;67555;47.660;19.622;2023-07-13T06:12:35;20.40;86.80
78297;DHT22;67555;47.660;19.622;2023-07-13T06:15:01;20.00;88.40
78297;DHT22;67555;47.660;19.622;2023-07-13T06:17:26;19.90;89.60
78297;DHT22;67555;47.660;19.622;2023-07-13T06:19:52;19.70;90.30
78297;DHT22;67555;47.660;19.622;2023-07-13T06:22:18;19.70;90.70
78297;DHT22;67555;47.660;19.622;2023-07-13T06:24:43;19.50;91.00
78297;DHT22;67555;47.660;19.622;2023-07-13T06:27:09;19.50;91.20
78297;DHT22;67555;47.660;19.622;2023-07-13T06:29:35;19.30;91.70
78297;DHT22;67555;47.660;19.622;2023-07-13T06:32:01;19.20;92.00
78297;DHT22;67555;47.660;19.622;2023-07-13T06:34:26;19.20;92.30
78297;DHT22;67555;47.660;19.622;2023-07-13T06:36:52;19.10;92.60
78297;DHT22;67555;47.660;19.622;2023-07-13T06:39:18;19.00;92.90
78297;DHT22;67555;47.660;19.622;2023-07-13T06:41:44;18.90;93.10
78297;DHT22;67555;47.660;19.622;2023-07-13T06:44:09;18.80;93.50
78297;DHT22;67555;47.660;19.622;2023-07-13T06:46:35;18.70;93.80
78297;DHT22;67555;47.660;19.622;2023-07-13T06:49:01;18.70;94.10
78297;DHT22;67555;47.660;19.622;2023-07-13T06:51:26;18.70;94.40
78297;DHT22;67555;47.660;19.622;2023-07-13T06:53:52;18.60;94.60
78297;DHT22;67555;47.660;19.622;2023-07-13T06:56:18;18.60;94.60
78297;DHT22;67555;47.660;19.622;2023-07-13T06:58:43;18.60;94.80
78297;DHT22;67555;47.660;19.622;2023-07-13T07:01:09;18.60;95.00
78297;DHT22;67555;47.660;19.622;2023-07-13T07:03:35;18.60;95.10
78297;DHT22;67555;47.660;19.622;2023-07-13T07:06:19;18.60;95.30
78297;DHT22;67555;47.660;19.622;2023-07-13T07:08:46;18.60;95.40
78297;DHT22;67555;47.660;19.622;2023-07-13T07:11:14;18.70;95.50
78297;DHT22;67555;47.660;19.622;2023-07-13T07:13:40;18.70;95.70
78297;DHT22;67555;47.660;19.622;2023-07-13T07:16:06;18.80;95.70
78297;DHT22;67555;47.660;19.622;2023-07-13T07:18:32;18.90;95.70
78297;DHT22;67555;47.660;19.622;2023-07-13T07:20:58;19.00;95.60
78297;DHT22;67555;47.660;19.622;2023-07-13T07:23:23;19.10;95.60
78297;DHT22;67555;47.660;19.622;2023-07-13T07:25:49;19.30;95.50
78297;DHT22;67555;47.660;19.622;2023-07-13T07:28:16;19.40;95.30
78297;DHT22;67555;47.660;19.622;2023-07-13T07:30:45;19.50;95.10
78297;DHT22;67555;47.660;19.622;2023-07-13T07:33:12;19.60;94.90
78297;DHT22;67555;47.660;19.622;2023-07-13T07:35:38;19.70;94.80
78297;DHT22;67555;47.660;19.622;2023-07-13T07:38:04;19.70;94.70
78297;DHT22;67555;47.660;19.622;2023-07-13T07:40:29;19.80;94.50
78297;DHT22;67555;47.660;19.622;2023-07-13T07:42:56;19.90;94.50
78297;DHT22;67555;47.660;19.622;2023-07-13T07:45:23;20.00;94.50
78297;DHT22;67555;47.660;19.622;2023-07-13T07:47:49;20.00;94.40
78297;DHT22;67555;47.660;19.622;2023-07-13T07:50:15;20.00;94.40
78297;DHT22;67555;47.660;19.622;2023-07-13T07:52:40;20.20;94.40
78297;DHT22;67555;47.660;19.622;2023-07-13T07:55:07;20.30;94.40
78297;DHT22;67555;47.660;19.622;2023-07-13T07:57:33;20.40;94.10
78297;DHT22;67555;47.660;19.622;2023-07-13T07:59:59;20.60;94.20
78297;DHT22;67555;47.660;19.622;2023-07-13T08:02:25;20.80;94.00
78297;DHT22;67555;47.660;19.622;2023-07-13T08:04:51;21.00;93.30
78297;DHT22;67555;47.660;19.622;2023-07-13T08:07:18;21.20;91.80
78297;DHT22;67555;47.660;19.622;2023-07-13T08:09:44;21.40;91.30
78297;DHT22;67555;47.660;19.622;2023-07-13T08:12:10;21.70;91.10
78297;DHT22;67555;47.660;19.622;2023-07-13T08:14:35;21.90;90.00
78297;DHT22;67555;47.660;19.622;2023-07-13T08:17:01;22.00;89.10
78297;DHT22;67555;47.660;19.622;2023-07-13T08:19:27;22.20;88.70
78297;DHT22;67555;47.660;19.622;2023-07-13T08:21:53;22.50;88.20
78297;DHT22;67555;47.660;19.622;2023-07-13T08:24:23;22.80;87.60
78297;DHT22;67555;47.660;19.622;2023-07-13T08:26:49;22.90;86.10
78297;DHT22;67555;47.660;19.622;2023-07-13T08:29:15;23.00;84.70
78297;DHT22;67555;47.660;19.622;2023-07-13T08:31:41;23.00;84.30
78297;DHT22;67555;47.660;19.622;2023-07-13T08:34:07;23.10;83.30
78297;DHT22;67555;47.660;19.622;2023-07-13T08:36:33;23.10;83.40
78297;DHT22;67555;47.660;19.622;2023-07-13T08:38:58;23.30;83.20
78297;DHT22;67555;47.660;19.622;2023-07-13T08:41:24;23.30;81.50
78297;DHT22;67555;47.660;19.622;2023-07-13T08:43:54;23.40;80.80
78297;DHT22;67555;47.660;19.622;2023-07-13T08:46:36;23.40;81.10
78297;DHT22;67555;47.660;19.622;2023-07-13T08:49:06;23.50;81.10
78297;DHT22;67555;47.660;19.622;2023-07-13T08:51:48;23.70;80.60
78297;DHT22;67555;47.660;19.622;2023-07-13T08:54:28;23.80;79.70
78297;DHT22;67555;47.660;19.622;2023-07-13T08:56:56;23.90;79.20
78297;DHT22;67555;47.660;19.622;2023-07-13T08:59:26;24.00;78.80
78297;DHT22;67555;47.660;19.622;2023-07-13T09:04:59;24.20;77.10
78297;DHT22;67555;47.660;19.622;2023-07-13T09:10:21;24.40;75.30
78297;DHT22;67555;47.660;19.622;2023-07-13T09:12:55;24.50;74.10
78297;DHT22;67555;47.660;19.622;2023-07-13T09:15:31;24.50;74.50
78297;DHT22;67555;47.660;19.622;2023-07-13T09:18:06;24.60;74.40
78297;DHT22;67555;47.660;19.622;2023-07-13T09:20:46;24.80;74.10
78297;DHT22;67555;47.660;19.622;2023-07-13T09:23:20;24.90;73.60
78297;DHT22;67555;47.660;19.622;2023-07-13T09:25:48;25.00;73.20
78297;DHT22;67555;47.660;19.622;2023-07-13T09:28:28;25.00;72.30
78297;DHT22;67555;47.660;19.622;2023-07-13T09:31:07;25.20;71.70
78297;DHT22;67555;47.660;19.622;2023-07-13T09:33:35;25.30;71.20
78297;DHT22;67555;47.660;19.622;2023-07-13T09:36:04;25.40;70.30
78297;DHT22;67555;47.660;19.622;2023-07-13T09:38:39;25.50;70.70
78297;DHT22;67555;47.660;19.622;2023-07-13T09:44:11;25.80;69.80
78297;DHT22;67555;47.660;19.622;2023-07-13T09:46:43;25.90;69.60
78297;DHT22;67555;47.660;19.622;2023-07-13T09:49:12;26.00;69.20
78297;DHT22;67555;47.660;19.622;2023-07-13T09:51:42;26.10;68.60
78297;DHT22;67555;47.660;19.622;2023-07-13T09:54:20;26.30;67.00
78297;DHT22;67555;47.660;19.622;2023-07-13T09:56:46;26.40;66.40
78297;DHT22;67555;47.660;19.622;2023-07-13T09:59:35;26.40;65.80
78297;DHT22;67555;47.660;19.622;2023-07-13T10:02:02;26.50;65.20
78297;DHT22;67555;47.660;19.622;2023-07-13T10:04:33;26.50;65.10
78297;DHT22;67555;47.660;19.622;2023-07-13T10:07:12;26.60;65.60
78297;DHT22;67555;47.660;19.622;2023-07-13T10:09:38;26.90;65.00
78297;DHT22;67555;47.660;19.622;2023-07-13T10:12:16;27.20;63.30
78297;DHT22;67555;47.660;19.622;2023-07-13T10:14:43;27.40;62.50
78297;DHT22;67555;47.660;19.622;2023-07-13T10:17:13;27.60;62.10
78297;DHT22;67555;47.660;19.622;2023-07-13T10:19:42;27.90;62.20
78297;DHT22;67555;47.660;19.622;2023-07-13T10:24:43;28.10;60.90
78297;DHT22;67555;47.660;19.622;2023-07-13T10:27:29;28.10;60.60
78297;DHT22;67555;47.660;19.622;2023-07-13T10:30:17;28.10;60.90
78297;DHT22;67555;47.660;19.622;2023-07-13T10:32:45;28.20;61.50
78297;DHT22;67555;47.660;19.622;2023-07-13T10:35:14;28.30;61.80
78297;DHT22;67555;47.660;19.622;2023-07-13T10:37:55;28.50;61.30
78297;DHT22;67555;47.660;19.622;2023-07-13T10:40:29;28.50;60.90
78297;DHT22;67555;47.660;19.622;2023-07-13T10:42:59;28.50;60.60
78297;DHT22;67555;47.660;19.622;2023-07-13T10:45:34;28.50;60.10
78297;DHT22;67555;47.660;19.622;2023-07-13T10:48:00;28.60;59.40
78297;DHT22;67555;47.660;19.622;2023-07-13T10:50:28;28.60;59.00
78297;DHT22;67555;47.660;19.622;2023-07-13T10:53:02;28.60;59.40
78297;DHT22;67555;47.660;19.622;2023-07-13T10:55:35;28.60;59.20
78297;DHT22;67555;47.660;19.622;2023-07-13T10:58:20;28.70;59.40
78297;DHT22;67555;47.660;19.622;2023-07-13T11:03:20;29.00;57.90
78297;DHT22;67555;47.660;19.622;2023-07-13T11:06:08;29.10;58.00
78297;DHT22;67555;47.660;19.622;2023-07-13T11:08:52;29.20;57.90
78297;DHT22;67555;47.660;19.622;2023-07-13T11:19:24;29.10;56.00
78297;DHT22;67555;47.660;19.622;2023-07-13T11:25:01;29.20;55.40
78297;DHT22;67555;47.660;19.622;2023-07-13T11:30:07;29.10;52.90
78297;DHT22;67555;47.660;19.622;2023-07-13T11:32:33;28.90;53.30
78297;DHT22;67555;47.660;19.622;2023-07-13T11:35:00;28.70;53.20
78297;DHT22;67555;47.660;19.622;2023-07-13T11:37:26;28.70;53.70
78297;DHT22;67555;47.660;19.622;2023-07-13T11:39:54;28.70;54.30
78297;DHT22;67555;47.660;19.622;2023-07-13T11:42:21;28.70;54.40
78297;DHT22;67555;47.660;19.622;2023-07-13T11:44:49;28.70;54.10
78297;DHT22;67555;47.660;19.622;2023-07-13T11:47:18;28.70;54.20
78297;DHT22;67555;47.660;19.622;2023-07-13T11:49:49;28.70;54.20
78297;DHT22;67555;47.660;19.622;2023-07-13T11:52:22;28.70;54.40
78297;DHT22;67555;47.660;19.622;2023-07-13T11:54:51;28.70;54.70
78297;DHT22;67555;47.660;19.622;2023-07-13T11:57:33;28.80;54.70
78297;DHT22;67555;47.660;19.622;2023-07-13T12:00:03;28.90;53.70
78297;DHT22;67555;47.660;19.622;2023-07-13T12:02:37;28.90;52.50
78297;DHT22;67555;47.660;19.622;2023-07-13T12:05:05;28.60;52.70
78297;DHT22;67555;47.660;19.622;2023-07-13T12:07:33;28.60;53.30
78297;DHT22;67555;47.660;19.622;2023-07-13T12:12:36;28.60;52.80
78297;DHT22;67555;47.660;19.622;2023-07-13T12:15:12;28.60;52.30
78297;DHT22;67555;47.660;19.622;2023-07-13T12:17:38;28.70;52.50
78297;DHT22;67555;47.660;19.622;2023-07-13T12:20:22;28.90;51.80
78297;DHT22;67555;47.660;19.622;2023-07-13T12:22:50;29.00;51.50
78297;DHT22;67555;47.660;19.622;2023-07-13T12:25:17;29.10;50.40
78297;DHT22;67555;47.660;19.622;2023-07-13T12:27:47;29.10;50.10
78297;DHT22;67555;47.660;19.622;2023-07-13T12:30:30;29.10;50.30
78297;DHT22;67555;47.660;19.622;2023-07-13T12:33:06;29.20;50.10
78297;DHT22;67555;47.660;19.622;2023-07-13T12:35:45;29.30;49.30
78297;DHT22;67555;47.660;19.622;2023-07-13T12:38:11;29.30;49.40
78297;DHT22;67555;47.660;19.622;2023-07-13T12:40:39;29.30;48.90
78297;DHT22;67555;47.660;19.622;2023-07-13T12:43:13;29.40;49.80
78297;DHT22;67555;47.660;19.622;2023-07-13T12:46:37;29.60;50.10
78297;DHT22;67555;47.660;19.622;2023-07-13T12:48:44;29.90;49.50
78297;DHT22;67555;47.660;19.622;2023-07-13T12:51:14;30.10;48.40
78297;DHT22;67555;47.660;19.622;2023-07-13T12:53:43;30.30;48.10
78297;DHT22;67555;47.660;19.622;2023-07-13T12:56:19;30.50;47.90
78297;DHT22;67555;47.660;19.622;2023-07-13T12:58:47;30.80;47.40
78297;DHT22;67555;47.660;19.622;2023-07-13T13:01:17;30.90;47.20
78297;DHT22;67555;47.660;19.622;2023-07-13T13:03:50;31.00;46.20
78297;DHT22;67555;47.660;19.622;2023-07-13T13:08:55;30.50;46.40
78297;DHT22;67555;47.660;19.622;2023-07-13T13:11:23;30.50;47.10
78297;DHT22;67555;47.660;19.622;2023-07-13T13:13:49;30.60;46.20
78297;DHT22;67555;47.660;19.622;2023-07-13T13:16:29;30.80;46.20
78297;DHT22;67555;47.660;19.622;2023-07-13T13:18:57;31.00;45.20
78297;DHT22;67555;47.660;19.622;2023-07-13T13:21:24;30.90;44.40
78297;DHT22;67555;47.660;19.622;2023-07-13T13:23:50;30.90;45.50
78297;DHT22;67555;47.660;19.622;2023-07-13T13:26:23;30.90;45.70
78297;DHT22;67555;47.660;19.622;2023-07-13T13:28:49;30.90;45.40
78297;DHT22;67555;47.660;19.622;2023-07-13T13:31:16;30.80;45.10
78297;DHT22;67555;47.660;19.622;2023-07-13T13:33:43;30.60;45.40
78297;DHT22;67555;47.660;19.622;2023-07-13T13:36:19;30.30;45.60
78297;DHT22;67555;47.660;19.622;2023-07-13T13:38:45;30.10;46.40
78297;DHT22;67555;47.660;19.622;2023-07-13T13:41:13;29.90;46.60
78297;DHT22;67555;47.660;19.622;2023-07-13T13:43:40;29.70;47.20
78297;DHT22;67555;47.660;19.622;2023-07-13T13:46:17;29.50;47.50
78297;DHT22;67555;47.660;19.622;2023-07-13T13:48:45;29.50;47.70
78297;DHT22;67555;47.660;19.622;2023-07-13T13:51:23;29.50;47.60
78297;DHT22;67555;47.660;19.622;2023-07-13T13:53:49;29.30;48.00
78297;DHT22;67555;47.660;19.622;2023-07-13T13:56:17;29.30;48.70
78297;DHT22;67555;47.660;19.622;2023-07-13T13:58:43;29.30;48.60
78297;DHT22;67555;47.660;19.622;2023-07-13T14:01:20;29.30;48.50
78297;DHT22;67555;47.660;19.622;2023-07-13T14:03:47;29.30;48.20
78297;DHT22;67555;47.660;19.622;2023-07-13T14:06:17;29.40;48.20
78297;DHT22;67555;47.660;19.622;2023-07-13T14:08:43;29.40;48.30
78297;DHT22;67555;47.660;19.622;2023-07-13T14:11:14;29.50;48.20
78297;DHT22;67555;47.660;19.622;2023-07-13T14:13:47;29.50;47.70
78297;DHT22;67555;47.660;19.622;2023-07-13T14:16:19;29.50;47.40
78297;DHT22;67555;47.660;19.622;2023-07-13T14:18:46;29.50;48.00
78297;DHT22;67555;47.660;19.622;2023-07-13T14:21:18;29.50;48.20
78297;DHT22;67555;47.660;19.622;2023-07-13T14:23:45;29.50;48.00
78297;DHT22;67555;47.660;19.622;2023-07-13T14:26:16;29.50;48.50
78297;DHT22;67555;47.660;19.622;2023-07-13T14:28:46;29.40;48.30
78297;DHT22;67555;47.660;19.622;2023-07-13T14:31:14;29.50;48.60
78297;DHT22;67555;47.660;19.622;2023-07-13T14:33:40;29.70;47.60
78297;DHT22;67555;47.660;19.622;2023-07-13T14:38:55;29.80;47.30
78297;DHT22;67555;47.660;19.622;2023-07-13T14:41:21;30.00;47.10
78297;DHT22;67555;47.660;19.622;2023-07-13T14:43:48;30.00;46.90
78297;DHT22;67555;47.660;19.622;2023-07-13T14:46:27;29.90;46.10
78297;DHT22;67555;47.660;19.622;2023-07-13T14:51:25;29.50;46.00
78297;DHT22;67555;47.660;19.622;2023-07-13T14:53:51;29.40;46.20
78297;DHT22;67555;47.660;19.622;2023-07-13T14:56:17;29.30;46.20
78297;DHT22;67555;47.660;19.622;2023-07-13T14:58:43;29.30;46.50
78297;DHT22;67555;47.660;19.622;2023-07-13T15:01:14;29.30;46.50
78297;DHT22;67555;47.660;19.622;2023-07-13T15:03:47;29.30;46.10
78297;DHT22;67555;47.660;19.622;2023-07-13T15:06:14;29.20;46.20
78297;DHT22;67555;47.660;19.622;2023-07-13T15:08:41;29.30;46.30
78297;DHT22;67555;47.660;19.622;2023-07-13T15:11:07;29.50;46.20
78297;DHT22;67555;47.660;19.622;2023-07-13T15:13:33;29.50;46.00
78297;DHT22;67555;47.660;19.622;2023-07-13T15:16:01;29.50;45.90
78297;DHT22;67555;47.660;19.622;2023-07-13T15:18:27;29.40;46.30
78297;DHT22;67555;47.660;19.622;2023-07-13T15:20:54;29.40;46.50
78297;DHT22;67555;47.660;19.622;2023-07-13T15:23:21;29.30;46.50
78297;DHT22;67555;47.660;19.622;2023-07-13T15:25:48;29.40;46.20
78297;DHT22;67555;47.660;19.622;2023-07-13T15:28:15;29.40;46.10
78297;DHT22;67555;47.660;19.622;2023-07-13T15:33:27;29.20;46.30
78297;DHT22;67555;47.660;19.622;2023-07-13T15:35:53;29.20;46.40
78297;DHT22;67555;47.660;19.622;2023-07-13T15:38:30;29.20;46.60
78297;DHT22;67555;47.660;19.622;2023-07-13T15:40:57;29.10;46.60
78297;DHT22;67555;47.660;19.622;2023-07-13T15:43:23;29.10;47.00
78297;DHT22;67555;47.660;19.622;2023-07-13T15:45:49;29.10;47.10
78297;DHT22;67555;47.660;19.622;2023-07-13T15:48:23;29.10;47.20
78297;DHT22;67555;47.660;19.622;2023-07-13T15:50:50;29.00;47.40
78297;DHT22;67555;47.660;19.622;2023-07-13T15:53:23;29.00;47.60
78297;DHT22;67555;47.660;19.622;2023-07-13T15:55:49;28.90;47.70
78297;DHT22;67555;47.660;19.622;2023-07-13T15:58:15;28.90;48.00
78297;DHT22;67555;47.660;19.622;2023-07-13T16:00:42;28.80;48.20
78297;DHT22;67555;47.660;19.622;2023-07-13T16:03:08;28.70;48.50
78297;DHT22;67555;47.660;19.622;2023-07-13T16:05:34;28.80;48.50